Brinkley, Kentucky
Current Conditions -  °F | °C
As of 8:15 PM on Thursday 27 Nov 2014 (Local Time) from KPBX Reporting Station
Overcast Overcast  
Wind Chill: 29°   Ceiling: 2300
Heat Index: 29°   Visibility: 10mi
Dew Point: 23°   Wind: 3mph
Humidity: 76%   Direction: 220°SW
Pressure: 30.33"   Gusts: NA
Location:  37.3236°N, 82.9494°W
Report Text: KPBX 280115Z AUTO 22003KT 10SM OVC023 M01/M05 A3033 RMK AO2 T10151052
Loading
Personal Weather Stations






























Interactive Weather Map New forecast layout! Learn more

10-Day Weather Forecast

Advertisements
Track Severe Weather on mobile